Terminal Aerodrome Forecast
Issued by NWS

Home | Current Version | Previous Version | Text Only | Print | Product List | Glossary On
Versions: 1 2 3 4 5 6 7 8 9 10 11 12 13 14 15 16 17 18 19 20 21 22 23 24 25 26 27 28
000
FTUS46 KEKA 162126 CCA
TAFCEC
TAF COR
KCEC 162126Z 1621/1718 34015G25KT P6SM FEW020
     FM170500 34011KT 6SM BR FEW015
     FM171000 35010KT 3SM BR BKN009
      TEMPO 1713/1717 6SM SCT009
     FM171700 35006KT P6SM SCT009=

USA.gov is the U.S. government's official web portal to all federal, state and local government web resources and services.